Historyczne dane pomiarowe

Dodano dane terminowe – wersja testowa.

Dane z okresu 1951-2019

Wersja bazy: 1.34 [2019-03-16, lista zmian], aktualizacja planowana na 2019-04-15

Dane meteo z obszaru Polski uzyskane na podstawie danych udostępnionych przez Instytut Meteorologii i Gospodarki Wodnej – Państwowy Instytut Badawczy.

 

Wybierz Datę:    

       

TemperaturaWilgotnośćWiatrCiśnienieOpadyŚniegCzas trwania zjawisk
 Stacja t tx tn tng RH VA  wxwx mslp ppp RRR   cm mm wxwxwxwxwxwxwx
1999-08-14 12.6 18.6 5.9- 68.0- 2.7 0.3---- 0.0------------
1999-08-13 13.9 17.4 10.9- 73.8- 8.0 0.7---- 0.0------------
1999-08-12 15.2 20.0 12.9- 89.5- 8.0 0.3---- 0.0------------
1999-08-11 18.5 22.6 14.3- 76.0- 6.3 1.3---- 3.9------------
1999-08-10 20.2 28.4 15.3- 84.8- 8.0 0.3---- 9.9------------
1999-08-09 19.7 30.0 12.3- 74.8- 4.0 0.7---- 0.4------------
1999-08-08 19.8 26.6 14.1- 78.5- 4.3 0.7---- 0.0------------
1999-08-07 18.8 27.0 12.3- 78.0- 6.7 0.0---- 5.1------------
1999-08-06 18.6 25.5 13.9- 85.3- 6.3 0.0---- 4.3------------
1999-08-05 15.5 23.9 7.9- 70.8- 5.0 0.0---- 0.0------------
1999-08-04 14.0 21.6 6.9- 80.0- 5.7 0.0---- 0.0------------
1999-08-03 13.7 18.4 9.9- 82.3- 7.3 0.0---- 0.0------------
1999-08-02 12.6 17.4 7.9- 88.0- 8.0 0.0---- 0.4------------
1999-08-01 14.7 19.7 10.9- 82.8- 8.0 0.0---- 0.1------------
1999-07-31 14.2 21.4 7.7- 77.5- 5.3 0.0---- 0.5------------
1999-07-30 13.3 20.4 6.9- 81.8- 4.3 0.3---- 0.0------------
1999-07-29 15.6 19.1 10.5- 74.3- 4.0 0.0---- 0.0------------
1999-07-28 18.3 24.7 14.9- 81.5- 4.7 0.3---- 0.0------------
1999-07-27 18.0 19.8 16.3- 91.3- 8.0 0.0---- 0.0------------
1999-07-26 17.5 24.5 11.7- 87.0- 5.3 0.0---- 6.6------------
1999-07-25 15.9 22.8 9.9- 83.3- 6.7 0.0---- 0.0------------
1999-07-24 14.2 17.6 10.3- 85.3- 8.0 0.3---- 0.0------------
1999-07-23 13.7 17.0 11.9- 93.0- 8.0 0.0---- 5.6------------
1999-07-22 16.8 23.0 12.3- 83.8- 6.0 0.0---- 13.8------------
1999-07-21 19.3 26.1 12.9- 79.5- 5.0 1.3---- 0.0------------
1999-07-20 18.3 26.6 10.3- 82.5- 2.3 0.0---- 0.0------------
1999-07-19 16.2 25.8 7.9- 82.5- 3.0 0.0---- 0.0------------
1999-07-18 14.5 22.0 6.9- 85.0- 4.3 0.0---- 0.0------------
1999-07-17 14.4 19.7 10.3- 84.3- 5.3 0.0---- 0.0------------
1999-07-16 14.5 19.7 8.1- 80.0- 5.0 0.0---- 0.0------------
1999-07-15 16.2 19.8 13.9- 81.0- 4.7 0.0---- 0.0------------
1999-07-14 18.3 22.6 14.7- 85.8- 6.0 0.0---- 6.2------------
1999-07-13 18.7 23.0 15.3- 88.0- 6.0 0.7---- 0.8------------
1999-07-12 18.0 23.6 13.1- 93.3- 8.0 1.3---- 1.8------------
1999-07-11 18.3 19.7 16.4- 90.0- 8.0 0.0---- 22.4------------
1999-07-10 17.6 20.0 15.3- 90.5- 8.0 1.0---- 0.1------------
1999-07-09 17.8 21.0 14.9- 88.8- 8.0 0.7---- 0.7------------
1999-07-08 19.0 22.6 16.3- 86.3- 8.0 0.0---- 43.9------------
1999-07-07 20.5 25.4 16.3- 83.8- 6.3 0.0---- 21.0------------
1999-07-06 21.7 29.3 14.1- 71.3- 2.3 0.7---- 0.0------------
1999-07-05 20.7 28.6 13.3- 78.3- 1.0 1.3---- 0.0------------
1999-07-04 19.9 28.8 11.3- 83.5- 1.0 0.0---- 0.0------------
1999-07-03 17.0 23.0 10.9- 84.0- 5.7 0.3---- 0.0------------
1999-07-02 17.5 21.6 13.1- 86.0- 6.0 0.0---- 8.4------------
1999-07-01 17.0 23.4 11.3- 87.8- 7.3 0.7---- 0.0------------
1999-06-30 18.3 23.0 12.9- 77.5- 5.3 0.0---- 0.0------------
1999-06-29 17.7 23.0 11.9- 79.5- 6.3 0.7---- 0.0------------
1999-06-28 16.5 24.8 9.7- 74.5- 6.3 0.0---- 0.5------------
1999-06-27 16.7 24.7 7.9- 70.3- 2.0 0.0---- 0.0------------
1999-06-26 13.5 21.8 4.3- 83.5- 2.7 0.3---- 0.0------------
1999-06-25 11.2 17.6 2.9- 73.5- 4.3 0.7---- 0.0------------
1999-06-24 9.6 11.2 7.1- 80.5- 8.0 0.0---- 0.0------------
1999-06-23 7.2 8.2 5.3-100.0- 8.0 1.3---- 5.6------------
1999-06-22 9.9 15.4 6.9- 98.3- 8.0 2.0---- 12.2------------
1999-06-21 16.3 19.7 14.9- 93.0- 8.0 0.0---- 19.4------------
1999-06-20 16.8 19.8 13.7- 85.8- 7.3 0.0---- 5.7------------
1999-06-19 16.4 20.3 13.1- 86.8- 8.0 0.0---- 0.0------------
1999-06-18 16.3 19.7 12.9- 94.0- 7.0 0.0---- 4.9------------
1999-06-17 16.7 21.2 14.9- 90.0- 6.7 0.0---- 13.3------------
1999-06-16 17.1 19.9 14.9- 93.5- 8.0 0.0---- 6.6------------
492.5 ms

 

Źródłem pochodzenia danych jest Instytut Meteorologii i Gospodarki Wodnej – Państwowy Instytut Badawczy. Dane Instytutu Meteorologii i Gospodarki Wodnej – Państwowego Instytutu Badawczego zostały przetworzone.

Dane źródłowe można odnaleźć na stronie https://dane.imgw.pl